sensor_id;sensor_type;location;lat;lon;timestamp;pressure;altitude;pressure_sealevel;temperature;humidity
61528;BME280;47395;42.032;-8.634;2022-07-25T00:00:04;101523.59;;;18.97;72.42
61528;BME280;47395;42.032;-8.634;2022-07-25T00:02:05;101526.94;;;18.87;72.33
61528;BME280;47395;42.032;-8.634;2022-07-25T00:04:06;101515.75;;;18.82;73.14
61528;BME280;47395;42.032;-8.634;2022-07-25T00:06:11;101515.44;;;18.74;73.35
61528;BME280;47395;42.032;-8.634;2022-07-25T00:08:12;101515.13;;;18.65;73.85
61528;BME280;47395;42.032;-8.634;2022-07-25T00:10:13;101511.72;;;18.63;74.01
61528;BME280;47395;42.032;-8.634;2022-07-25T00:12:14;101498.25;;;18.65;73.67
61528;BME280;47395;42.032;-8.634;2022-07-25T00:14:15;101504.53;;;18.64;73.08
61528;BME280;47395;42.032;-8.634;2022-07-25T00:16:15;101508.06;;;18.64;73.39
61528;BME280;47395;42.032;-8.634;2022-07-25T00:18:16;101505.00;;;18.58;73.74
61528;BME280;47395;42.032;-8.634;2022-07-25T00:20:17;101501.34;;;18.59;73.50
61528;BME280;47395;42.032;-8.634;2022-07-25T00:22:18;101506.59;;;18.60;73.25
61528;BME280;47395;42.032;-8.634;2022-07-25T00:24:19;101501.66;;;18.54;73.60
61528;BME280;47395;42.032;-8.634;2022-07-25T00:26:20;101495.59;;;18.52;73.39
61528;BME280;47395;42.032;-8.634;2022-07-25T00:28:21;101501.56;;;18.56;72.79
61528;BME280;47395;42.032;-8.634;2022-07-25T00:30:22;101505.75;;;18.47;73.08
61528;BME280;47395;42.032;-8.634;2022-07-25T00:32:23;101509.06;;;18.63;72.69
61528;BME280;47395;42.032;-8.634;2022-07-25T00:34:24;101501.88;;;18.64;72.89
61528;BME280;47395;42.032;-8.634;2022-07-25T00:36:25;101500.47;;;18.58;72.93
61528;BME280;47395;42.032;-8.634;2022-07-25T00:38:25;101498.88;;;18.56;72.61
61528;BME280;47395;42.032;-8.634;2022-07-25T00:40:26;101495.69;;;18.50;72.79
61528;BME280;47395;42.032;-8.634;2022-07-25T00:42:28;101494.09;;;18.48;72.58
61528;BME280;47395;42.032;-8.634;2022-07-25T00:44:30;101505.84;;;18.45;72.52
61528;BME280;47395;42.032;-8.634;2022-07-25T00:46:31;101508.81;;;18.40;73.87
61528;BME280;47395;42.032;-8.634;2022-07-25T00:48:32;101499.56;;;18.33;74.22
61528;BME280;47395;42.032;-8.634;2022-07-25T00:50:34;101495.28;;;18.44;74.28
61528;BME280;47395;42.032;-8.634;2022-07-25T00:52:36;101491.53;;;18.46;74.10
61528;BME280;47395;42.032;-8.634;2022-07-25T00:54:37;101500.41;;;18.47;74.42
61528;BME280;47395;42.032;-8.634;2022-07-25T00:56:38;101507.88;;;18.42;74.91
61528;BME280;47395;42.032;-8.634;2022-07-25T00:58:39;101512.25;;;18.43;74.86
61528;BME280;47395;42.032;-8.634;2022-07-25T01:00:41;101504.25;;;18.43;74.97
61528;BME280;47395;42.032;-8.634;2022-07-25T01:02:42;101499.75;;;18.43;74.95
61528;BME280;47395;42.032;-8.634;2022-07-25T01:04:43;101505.97;;;18.31;75.65
61528;BME280;47395;42.032;-8.634;2022-07-25T01:06:44;101500.19;;;18.37;75.46
61528;BME280;47395;42.032;-8.634;2022-07-25T01:08:46;101497.72;;;18.34;75.41
61528;BME280;47395;42.032;-8.634;2022-07-25T01:10:48;101491.22;;;18.38;75.43
61528;BME280;47395;42.032;-8.634;2022-07-25T01:12:53;101480.44;;;18.39;75.29
61528;BME280;47395;42.032;-8.634;2022-07-25T01:14:55;101487.16;;;18.32;75.39
61528;BME280;47395;42.032;-8.634;2022-07-25T01:16:56;101481.09;;;18.30;75.34
61528;BME280;47395;42.032;-8.634;2022-07-25T01:18:57;101488.78;;;18.35;75.11
61528;BME280;47395;42.032;-8.634;2022-07-25T01:20:59;101493.06;;;18.37;74.78
61528;BME280;47395;42.032;-8.634;2022-07-25T01:23:00;101481.41;;;18.25;74.83
61528;BME280;47395;42.032;-8.634;2022-07-25T01:25:01;101477.16;;;18.36;74.48
61528;BME280;47395;42.032;-8.634;2022-07-25T01:27:02;101475.88;;;18.42;74.06
61528;BME280;47395;42.032;-8.634;2022-07-25T01:29:04;101478.53;;;18.42;73.46
61528;BME280;47395;42.032;-8.634;2022-07-25T01:31:05;101482.56;;;18.47;73.29
61528;BME280;47395;42.032;-8.634;2022-07-25T01:33:06;101476.91;;;18.39;73.40
61528;BME280;47395;42.032;-8.634;2022-07-25T01:35:07;101482.38;;;18.37;73.45
61528;BME280;47395;42.032;-8.634;2022-07-25T01:37:08;101484.63;;;18.31;73.28
61528;BME280;47395;42.032;-8.634;2022-07-25T01:39:09;101476.38;;;18.34;73.18
61528;BME280;47395;42.032;-8.634;2022-07-25T01:41:10;101478.97;;;18.22;73.14
61528;BME280;47395;42.032;-8.634;2022-07-25T01:43:11;101478.63;;;18.27;73.24
61528;BME280;47395;42.032;-8.634;2022-07-25T01:45:13;101483.31;;;18.36;72.90
61528;BME280;47395;42.032;-8.634;2022-07-25T01:47:14;101472.03;;;18.33;73.34
61528;BME280;47395;42.032;-8.634;2022-07-25T01:49:16;101477.47;;;18.44;72.88
61528;BME280;47395;42.032;-8.634;2022-07-25T01:51:17;101472.25;;;18.43;73.26
61528;BME280;47395;42.032;-8.634;2022-07-25T01:53:18;101465.50;;;18.37;73.30
61528;BME280;47395;42.032;-8.634;2022-07-25T01:55:19;101473.31;;;18.40;73.35
61528;BME280;47395;42.032;-8.634;2022-07-25T01:57:20;101474.69;;;18.46;73.21
61528;BME280;47395;42.032;-8.634;2022-07-25T01:59:21;101472.97;;;18.45;73.28
61528;BME280;47395;42.032;-8.634;2022-07-25T02:01:22;101473.72;;;18.47;73.25
61528;BME280;47395;42.032;-8.634;2022-07-25T02:03:23;101471.72;;;18.37;73.80
61528;BME280;47395;42.032;-8.634;2022-07-25T02:05:30;101467.63;;;18.45;73.86
61528;BME280;47395;42.032;-8.634;2022-07-25T02:07:31;101460.03;;;18.51;73.50
61528;BME280;47395;42.032;-8.634;2022-07-25T02:09:32;101469.34;;;18.33;73.88
61528;BME280;47395;42.032;-8.634;2022-07-25T02:11:33;101468.16;;;18.50;73.58
61528;BME280;47395;42.032;-8.634;2022-07-25T02:13:34;101461.00;;;18.63;73.72
61528;BME280;47395;42.032;-8.634;2022-07-25T02:15:35;101457.22;;;18.79;72.02
61528;BME280;47395;42.032;-8.634;2022-07-25T02:17:36;101458.41;;;18.75;72.45
61528;BME280;47395;42.032;-8.634;2022-07-25T02:19:37;101456.69;;;18.74;72.17
61528;BME280;47395;42.032;-8.634;2022-07-25T02:21:38;101457.88;;;18.70;72.50
61528;BME280;47395;42.032;-8.634;2022-07-25T02:23:38;101461.00;;;18.63;72.82
61528;BME280;47395;42.032;-8.634;2022-07-25T02:25:40;101466.25;;;18.52;73.22
61528;BME280;47395;42.032;-8.634;2022-07-25T02:27:41;101464.84;;;18.59;72.89
61528;BME280;47395;42.032;-8.634;2022-07-25T02:29:42;101459.06;;;18.65;72.35
61528;BME280;47395;42.032;-8.634;2022-07-25T02:31:43;101459.53;;;18.59;72.91
61528;BME280;47395;42.032;-8.634;2022-07-25T02:33:44;101463.94;;;18.72;71.97
61528;BME280;47395;42.032;-8.634;2022-07-25T02:35:45;101465.91;;;18.57;72.40
61528;BME280;47395;42.032;-8.634;2022-07-25T02:37:46;101460.81;;;18.53;72.37
61528;BME280;47395;42.032;-8.634;2022-07-25T02:39:46;101454.13;;;18.72;71.35
61528;BME280;47395;42.032;-8.634;2022-07-25T02:41:47;101460.44;;;18.71;71.36
61528;BME280;47395;42.032;-8.634;2022-07-25T02:43:48;101455.84;;;18.73;70.92
61528;BME280;47395;42.032;-8.634;2022-07-25T02:45:49;101456.16;;;18.82;70.71
61528;BME280;47395;42.032;-8.634;2022-07-25T02:47:50;101451.66;;;18.82;70.49
61528;BME280;47395;42.032;-8.634;2022-07-25T02:49:51;101461.59;;;18.80;70.51
61528;BME280;47395;42.032;-8.634;2022-07-25T02:51:52;101458.09;;;18.79;70.19
61528;BME280;47395;42.032;-8.634;2022-07-25T02:53:53;101457.72;;;18.84;70.41
61528;BME280;47395;42.032;-8.634;2022-07-25T02:55:54;101456.66;;;18.87;70.25
61528;BME280;47395;42.032;-8.634;2022-07-25T02:57:54;101448.31;;;18.91;70.83
61528;BME280;47395;42.032;-8.634;2022-07-25T02:59:55;101452.84;;;18.78;71.36
61528;BME280;47395;42.032;-8.634;2022-07-25T03:01:58;101444.91;;;18.89;71.25
61528;BME280;47395;42.032;-8.634;2022-07-25T03:03:59;101452.06;;;18.89;71.66
61528;BME280;47395;42.032;-8.634;2022-07-25T03:06:00;101448.94;;;19.08;70.52
61528;BME280;47395;42.032;-8.634;2022-07-25T03:08:01;101452.56;;;19.07;70.30
61528;BME280;47395;42.032;-8.634;2022-07-25T03:10:03;101454.53;;;19.16;70.32
61528;BME280;47395;42.032;-8.634;2022-07-25T03:12:04;101453.72;;;19.16;69.84
61528;BME280;47395;42.032;-8.634;2022-07-25T03:14:07;101459.03;;;18.78;69.93
61528;BME280;47395;42.032;-8.634;2022-07-25T03:16:08;101449.06;;;18.43;71.24
61528;BME280;47395;42.032;-8.634;2022-07-25T03:18:09;101451.72;;;18.43;71.45
61528;BME280;47395;42.032;-8.634;2022-07-25T03:20:10;101457.72;;;18.34;71.59
61528;BME280;47395;42.032;-8.634;2022-07-25T03:22:11;101448.34;;;18.28;71.92
61528;BME280;47395;42.032;-8.634;2022-07-25T03:24:12;101451.84;;;18.29;72.01
61528;BME280;47395;42.032;-8.634;2022-07-25T03:26:13;101450.38;;;18.24;72.06
61528;BME280;47395;42.032;-8.634;2022-07-25T03:28:14;101455.34;;;18.03;72.79
61528;BME280;47395;42.032;-8.634;2022-07-25T03:30:15;101452.56;;;17.79;73.78
61528;BME280;47395;42.032;-8.634;2022-07-25T03:32:23;101449.84;;;17.66;74.26
61528;BME280;47395;42.032;-8.634;2022-07-25T03:34:53;101442.81;;;17.65;74.31
61528;BME280;47395;42.032;-8.634;2022-07-25T03:37:12;101420.97;;;17.59;74.50
61528;BME280;47395;42.032;-8.634;2022-07-25T03:39:12;101433.13;;;17.64;74.34
61528;BME280;47395;42.032;-8.634;2022-07-25T03:41:13;101422.38;;;17.65;74.31
61528;BME280;47395;42.032;-8.634;2022-07-25T03:43:14;101437.28;;;17.68;74.57
61528;BME280;47395;42.032;-8.634;2022-07-25T03:45:15;101435.34;;;17.57;75.52
61528;BME280;47395;42.032;-8.634;2022-07-25T03:47:18;101436.81;;;17.88;74.64
61528;BME280;47395;42.032;-8.634;2022-07-25T03:49:18;101439.56;;;18.00;74.25
61528;BME280;47395;42.032;-8.634;2022-07-25T03:51:19;101445.09;;;17.71;76.06
61528;BME280;47395;42.032;-8.634;2022-07-25T03:53:20;101447.63;;;17.72;76.35
61528;BME280;47395;42.032;-8.634;2022-07-25T03:55:21;101451.78;;;17.77;75.57
61528;BME280;47395;42.032;-8.634;2022-07-25T03:57:22;101457.91;;;18.05;75.03
61528;BME280;47395;42.032;-8.634;2022-07-25T03:59:23;101451.34;;;18.23;73.89
61528;BME280;47395;42.032;-8.634;2022-07-25T04:04:11;101472.34;;;18.41;72.68
61528;BME280;47395;42.032;-8.634;2022-07-25T04:06:12;101468.59;;;18.44;72.62
61528;BME280;47395;42.032;-8.634;2022-07-25T04:08:13;101473.19;;;18.42;72.48
61528;BME280;47395;42.032;-8.634;2022-07-25T04:10:13;101467.44;;;18.35;72.29
61528;BME280;47395;42.032;-8.634;2022-07-25T04:12:14;101473.41;;;18.25;72.92
61528;BME280;47395;42.032;-8.634;2022-07-25T04:14:15;101476.94;;;18.13;73.18
61528;BME280;47395;42.032;-8.634;2022-07-25T04:16:16;101477.03;;;18.11;73.43
61528;BME280;47395;42.032;-8.634;2022-07-25T04:18:17;101484.06;;;18.12;73.46
61528;BME280;47395;42.032;-8.634;2022-07-25T04:20:18;101486.13;;;18.09;73.64
61528;BME280;47395;42.032;-8.634;2022-07-25T04:22:19;101486.47;;;18.03;73.67
61528;BME280;47395;42.032;-8.634;2022-07-25T04:24:20;101481.47;;;17.98;74.06
61528;BME280;47395;42.032;-8.634;2022-07-25T04:26:21;101476.56;;;17.92;74.23
61528;BME280;47395;42.032;-8.634;2022-07-25T04:28:26;101486.69;;;17.86;74.61
61528;BME280;47395;42.032;-8.634;2022-07-25T04:30:27;101480.81;;;17.81;74.78
61528;BME280;47395;42.032;-8.634;2022-07-25T04:32:27;101474.00;;;17.90;74.73
61528;BME280;47395;42.032;-8.634;2022-07-25T04:34:28;101471.44;;;17.88;74.42
61528;BME280;47395;42.032;-8.634;2022-07-25T04:36:29;101480.63;;;17.97;74.04
61528;BME280;47395;42.032;-8.634;2022-07-25T04:38:30;101479.66;;;17.98;74.00
61528;BME280;47395;42.032;-8.634;2022-07-25T04:40:31;101482.97;;;18.02;73.84
61528;BME280;47395;42.032;-8.634;2022-07-25T04:42:32;101476.25;;;17.96;73.84
61528;BME280;47395;42.032;-8.634;2022-07-25T04:44:33;101472.53;;;17.99;73.86
61528;BME280;47395;42.032;-8.634;2022-07-25T04:46:33;101473.16;;;18.03;73.64
61528;BME280;47395;42.032;-8.634;2022-07-25T04:48:34;101484.69;;;18.03;73.85
61528;BME280;47395;42.032;-8.634;2022-07-25T04:50:35;101478.38;;;18.04;73.71
61528;BME280;47395;42.032;-8.634;2022-07-25T04:52:36;101484.06;;;18.12;73.54
61528;BME280;47395;42.032;-8.634;2022-07-25T04:54:37;101484.50;;;18.19;73.13
61528;BME280;47395;42.032;-8.634;2022-07-25T04:56:37;101471.91;;;18.08;73.09
61528;BME280;47395;42.032;-8.634;2022-07-25T04:58:38;101472.78;;;18.22;73.01
61528;BME280;47395;42.032;-8.634;2022-07-25T05:00:40;101478.22;;;18.33;72.52
61528;BME280;47395;42.032;-8.634;2022-07-25T05:02:41;101484.09;;;18.38;72.29
61528;BME280;47395;42.032;-8.634;2022-07-25T05:04:42;101471.56;;;18.39;71.81
61528;BME280;47395;42.032;-8.634;2022-07-25T05:06:43;101483.53;;;18.46;71.64
61528;BME280;47395;42.032;-8.634;2022-07-25T05:08:44;101493.59;;;18.43;71.87
61528;BME280;47395;42.032;-8.634;2022-07-25T05:10:45;101491.63;;;18.45;71.78
61528;BME280;47395;42.032;-8.634;2022-07-25T05:12:46;101513.00;;;18.45;72.20
61528;BME280;47395;42.032;-8.634;2022-07-25T05:14:46;101493.47;;;18.44;72.35
61528;BME280;47395;42.032;-8.634;2022-07-25T05:16:47;101505.72;;;18.34;72.29
61528;BME280;47395;42.032;-8.634;2022-07-25T05:18:48;101505.09;;;18.43;71.76
61528;BME280;47395;42.032;-8.634;2022-07-25T05:20:49;101494.97;;;18.48;71.42
61528;BME280;47395;42.032;-8.634;2022-07-25T05:22:50;101496.88;;;18.46;71.67
61528;BME280;47395;42.032;-8.634;2022-07-25T05:24:51;101487.06;;;18.47;71.45
61528;BME280;47395;42.032;-8.634;2022-07-25T05:26:52;101490.91;;;18.43;72.11
61528;BME280;47395;42.032;-8.634;2022-07-25T05:28:53;101493.69;;;18.41;72.09
61528;BME280;47395;42.032;-8.634;2022-07-25T05:30:53;101493.13;;;18.49;71.93
61528;BME280;47395;42.032;-8.634;2022-07-25T05:32:54;101493.03;;;18.50;71.29
61528;BME280;47395;42.032;-8.634;2022-07-25T05:34:55;101503.06;;;18.47;70.83
61528;BME280;47395;42.032;-8.634;2022-07-25T05:36:56;101507.88;;;18.42;71.46
61528;BME280;47395;42.032;-8.634;2022-07-25T05:38:57;101496.97;;;18.19;72.05
61528;BME280;47395;42.032;-8.634;2022-07-25T05:40:58;101499.78;;;18.17;72.25
61528;BME280;47395;42.032;-8.634;2022-07-25T05:42:59;101504.44;;;18.13;72.56
61528;BME280;47395;42.032;-8.634;2022-07-25T05:45:00;101504.25;;;18.17;72.17
61528;BME280;47395;42.032;-8.634;2022-07-25T05:47:01;101496.09;;;18.05;72.50
61528;BME280;47395;42.032;-8.634;2022-07-25T05:49:02;101506.75;;;18.05;72.73
61528;BME280;47395;42.032;-8.634;2022-07-25T05:51:02;101499.81;;;17.90;72.80
61528;BME280;47395;42.032;-8.634;2022-07-25T05:53:03;101500.47;;;18.06;73.22
61528;BME280;47395;42.032;-8.634;2022-07-25T05:55:04;101496.78;;;18.35;72.09
61528;BME280;47395;42.032;-8.634;2022-07-25T05:57:05;101504.56;;;18.51;71.50
61528;BME280;47395;42.032;-8.634;2022-07-25T05:59:06;101507.72;;;18.69;70.70
61528;BME280;47395;42.032;-8.634;2022-07-25T06:01:10;101504.72;;;18.87;70.46
61528;BME280;47395;42.032;-8.634;2022-07-25T06:03:11;101511.31;;;18.94;70.24
61528;BME280;47395;42.032;-8.634;2022-07-25T06:05:12;101519.59;;;18.78;70.42
61528;BME280;47395;42.032;-8.634;2022-07-25T06:07:13;101512.19;;;18.95;70.38
61528;BME280;47395;42.032;-8.634;2022-07-25T06:09:14;101517.47;;;19.45;68.96
61528;BME280;47395;42.032;-8.634;2022-07-25T06:11:15;101522.50;;;19.50;68.80
61528;BME280;47395;42.032;-8.634;2022-07-25T06:13:16;101515.00;;;19.91;67.36
61528;BME280;47395;42.032;-8.634;2022-07-25T06:15:17;101523.00;;;20.15;66.69
61528;BME280;47395;42.032;-8.634;2022-07-25T06:17:18;101521.94;;;20.52;65.39
61528;BME280;47395;42.032;-8.634;2022-07-25T06:19:19;101522.56;;;20.56;65.14
61528;BME280;47395;42.032;-8.634;2022-07-25T06:21:20;101520.38;;;20.95;63.74
61528;BME280;47395;42.032;-8.634;2022-07-25T06:23:20;101517.97;;;21.36;62.77
61528;BME280;47395;42.032;-8.634;2022-07-25T06:25:22;101524.41;;;21.67;61.55
61528;BME280;47395;42.032;-8.634;2022-07-25T06:27:22;101530.50;;;22.01;60.87
61528;BME280;47395;42.032;-8.634;2022-07-25T06:29:23;101523.09;;;22.36;59.54
61528;BME280;47395;42.032;-8.634;2022-07-25T06:31:24;101520.00;;;22.41;59.39
61528;BME280;47395;42.032;-8.634;2022-07-25T06:33:25;101521.41;;;22.66;58.23
61528;BME280;47395;42.032;-8.634;2022-07-25T06:35:26;101525.91;;;23.07;57.23
61528;BME280;47395;42.032;-8.634;2022-07-25T06:37:27;101525.81;;;23.28;56.52
61528;BME280;47395;42.032;-8.634;2022-07-25T06:39:28;101520.50;;;23.48;55.94
61528;BME280;47395;42.032;-8.634;2022-07-25T06:41:29;101515.09;;;23.88;54.22
61528;BME280;47395;42.032;-8.634;2022-07-25T06:43:29;101529.03;;;24.41;53.03
61528;BME280;47395;42.032;-8.634;2022-07-25T06:45:30;101532.00;;;24.85;51.46
61528;BME280;47395;42.032;-8.634;2022-07-25T06:47:31;101524.78;;;25.22;50.17
61528;BME280;47395;42.032;-8.634;2022-07-25T06:49:32;101526.53;;;25.78;48.98
61528;BME280;47395;42.032;-8.634;2022-07-25T06:51:33;101539.63;;;25.91;48.33
61528;BME280;47395;42.032;-8.634;2022-07-25T06:53:34;101536.88;;;26.70;46.64
61528;BME280;47395;42.032;-8.634;2022-07-25T06:55:35;101531.50;;;27.14;46.78
61528;BME280;47395;42.032;-8.634;2022-07-25T06:57:36;101543.06;;;28.07;44.75
61528;BME280;47395;42.032;-8.634;2022-07-25T06:59:37;101542.19;;;28.40;43.17
61528;BME280;47395;42.032;-8.634;2022-07-25T07:01:38;101548.44;;;28.89;41.64
61528;BME280;47395;42.032;-8.634;2022-07-25T07:03:39;101550.56;;;29.34;40.56
61528;BME280;47395;42.032;-8.634;2022-07-25T07:05:40;101551.88;;;29.84;39.21
61528;BME280;47395;42.032;-8.634;2022-07-25T07:07:41;101548.16;;;30.39;38.02
61528;BME280;47395;42.032;-8.634;2022-07-25T07:09:42;101549.50;;;31.32;36.21
61528;BME280;47395;42.032;-8.634;2022-07-25T07:11:43;101549.97;;;31.58;35.59
61528;BME280;47395;42.032;-8.634;2022-07-25T07:13:44;101549.84;;;32.23;34.77
61528;BME280;47395;42.032;-8.634;2022-07-25T07:15:46;101556.47;;;32.78;33.44
61528;BME280;47395;42.032;-8.634;2022-07-25T07:17:49;101559.19;;;32.78;33.47
61528;BME280;47395;42.032;-8.634;2022-07-25T07:19:50;101560.06;;;32.85;33.33
61528;BME280;47395;42.032;-8.634;2022-07-25T07:21:51;101567.78;;;33.30;32.78
61528;BME280;47395;42.032;-8.634;2022-07-25T07:23:52;101558.63;;;32.89;34.28
61528;BME280;47395;42.032;-8.634;2022-07-25T07:25:53;101566.31;;;32.79;33.64
61528;BME280;47395;42.032;-8.634;2022-07-25T07:27:54;101565.50;;;34.02;32.14
61528;BME280;47395;42.032;-8.634;2022-07-25T07:29:54;101561.50;;;33.50;33.01
61528;BME280;47395;42.032;-8.634;2022-07-25T07:31:55;101566.09;;;33.43;32.83
61528;BME280;47395;42.032;-8.634;2022-07-25T07:33:56;101562.34;;;34.25;31.59
61528;BME280;47395;42.032;-8.634;2022-07-25T07:36:00;101564.44;;;33.96;31.34
61528;BME280;47395;42.032;-8.634;2022-07-25T07:38:01;101570.66;;;34.57;30.67
61528;BME280;47395;42.032;-8.634;2022-07-25T07:40:02;101562.13;;;35.32;30.33
61528;BME280;47395;42.032;-8.634;2022-07-25T07:42:03;101560.88;;;34.88;30.57
61528;BME280;47395;42.032;-8.634;2022-07-25T07:44:04;101572.41;;;35.36;29.03
61528;BME280;47395;42.032;-8.634;2022-07-25T07:46:06;101578.47;;;35.77;28.99
61528;BME280;47395;42.032;-8.634;2022-07-25T07:48:07;101577.66;;;36.40;28.62
61528;BME280;47395;42.032;-8.634;2022-07-25T07:50:08;101576.00;;;35.69;29.73
61528;BME280;47395;42.032;-8.634;2022-07-25T07:52:09;101577.44;;;35.72;29.40
61528;BME280;47395;42.032;-8.634;2022-07-25T07:54:10;101586.59;;;35.65;29.27
61528;BME280;47395;42.032;-8.634;2022-07-25T07:56:29;101578.41;;;35.84;29.34
61528;BME280;47395;42.032;-8.634;2022-07-25T07:58:30;101579.00;;;36.87;27.42
61528;BME280;47395;42.032;-8.634;2022-07-25T08:00:31;101585.03;;;37.26;26.82
61528;BME280;47395;42.032;-8.634;2022-07-25T08:02:46;101586.22;;;37.30;27.28
61528;BME280;47395;42.032;-8.634;2022-07-25T08:04:48;101582.69;;;36.80;27.87
61528;BME280;47395;42.032;-8.634;2022-07-25T08:06:50;101591.34;;;36.96;27.66
61528;BME280;47395;42.032;-8.634;2022-07-25T08:08:51;101584.50;;;37.60;26.73
61528;BME280;47395;42.032;-8.634;2022-07-25T08:10:52;101587.31;;;37.72;26.97
61528;BME280;47395;42.032;-8.634;2022-07-25T08:12:53;101592.34;;;38.23;26.03
61528;BME280;47395;42.032;-8.634;2022-07-25T08:14:54;101594.38;;;37.80;26.30
61528;BME280;47395;42.032;-8.634;2022-07-25T08:16:55;101581.84;;;37.53;26.69
61528;BME280;47395;42.032;-8.634;2022-07-25T08:18:56;101583.81;;;37.88;26.29
61528;BME280;47395;42.032;-8.634;2022-07-25T08:20:58;101590.84;;;38.44;25.69
61528;BME280;47395;42.032;-8.634;2022-07-25T08:22:59;101595.34;;;38.74;25.50
61528;BME280;47395;42.032;-8.634;2022-07-25T08:25:00;101590.69;;;38.75;24.92
61528;BME280;47395;42.032;-8.634;2022-07-25T08:27:01;101597.84;;;39.63;24.29
61528;BME280;47395;42.032;-8.634;2022-07-25T08:29:02;101594.97;;;37.27;26.75
61528;BME280;47395;42.032;-8.634;2022-07-25T08:31:03;101591.38;;;38.82;25.84
61528;BME280;47395;42.032;-8.634;2022-07-25T08:33:06;101593.91;;;39.59;23.79
61528;BME280;47395;42.032;-8.634;2022-07-25T08:35:09;101582.91;;;39.81;24.05
61528;BME280;47395;42.032;-8.634;2022-07-25T08:37:09;101586.44;;;39.42;23.96
61528;BME280;47395;42.032;-8.634;2022-07-25T08:39:10;101584.56;;;39.31;23.57
61528;BME280;47395;42.032;-8.634;2022-07-25T08:41:11;101587.66;;;40.20;23.27
61528;BME280;47395;42.032;-8.634;2022-07-25T08:43:13;101591.84;;;40.68;22.55
61528;BME280;47395;42.032;-8.634;2022-07-25T08:45:18;101600.72;;;40.08;23.68
61528;BME280;47395;42.032;-8.634;2022-07-25T08:47:20;101595.38;;;39.50;23.86
61528;BME280;47395;42.032;-8.634;2022-07-25T08:49:21;101594.19;;;40.14;23.75
61528;BME280;47395;42.032;-8.634;2022-07-25T08:51:23;101590.75;;;40.69;22.63
61528;BME280;47395;42.032;-8.634;2022-07-25T08:53:25;101596.47;;;40.84;22.74
61528;BME280;47395;42.032;-8.634;2022-07-25T08:55:26;101593.31;;;40.53;22.62
61528;BME280;47395;42.032;-8.634;2022-07-25T08:57:28;101587.50;;;40.50;22.66
61528;BME280;47395;42.032;-8.634;2022-07-25T08:59:30;101602.63;;;40.92;22.38
61528;BME280;47395;42.032;-8.634;2022-07-25T09:01:31;101593.97;;;40.83;22.26
61528;BME280;47395;42.032;-8.634;2022-07-25T09:03:32;101593.41;;;41.08;21.93
61528;BME280;47395;42.032;-8.634;2022-07-25T09:05:34;101589.25;;;41.06;21.68
61528;BME280;47395;42.032;-8.634;2022-07-25T09:07:39;101590.59;;;42.07;21.00
61528;BME280;47395;42.032;-8.634;2022-07-25T09:09:40;101588.44;;;41.10;21.75
61528;BME280;47395;42.032;-8.634;2022-07-25T09:11:43;101593.59;;;41.62;20.84
61528;BME280;47395;42.032;-8.634;2022-07-25T09:13:56;101597.72;;;41.59;21.11
61528;BME280;47395;42.032;-8.634;2022-07-25T09:15:57;101591.34;;;41.54;21.57
61528;BME280;47395;42.032;-8.634;2022-07-25T09:18:02;101587.72;;;41.86;20.70
61528;BME280;47395;42.032;-8.634;2022-07-25T09:20:06;101597.06;;;42.18;20.10
61528;BME280;47395;42.032;-8.634;2022-07-25T09:22:08;101583.16;;;41.36;21.02
61528;BME280;47395;42.032;-8.634;2022-07-25T09:24:14;101582.41;;;40.41;22.14
61528;BME280;47395;42.032;-8.634;2022-07-25T09:26:15;101588.06;;;41.29;21.38
61528;BME280;47395;42.032;-8.634;2022-07-25T09:28:18;101590.66;;;41.36;21.54
61528;BME280;47395;42.032;-8.634;2022-07-25T09:30:19;101583.00;;;40.88;21.59
61528;BME280;47395;42.032;-8.634;2022-07-25T09:32:21;101575.22;;;41.13;21.47
61528;BME280;47395;42.032;-8.634;2022-07-25T09:34:39;101572.44;;;41.13;21.34
61528;BME280;47395;42.032;-8.634;2022-07-25T09:36:55;101573.88;;;41.20;21.30
61528;BME280;47395;42.032;-8.634;2022-07-25T09:38:58;101586.31;;;42.37;20.51
61528;BME280;47395;42.032;-8.634;2022-07-25T09:41:00;101576.94;;;42.38;19.66
61528;BME280;47395;42.032;-8.634;2022-07-25T09:43:02;101575.28;;;41.50;20.25
61528;BME280;47395;42.032;-8.634;2022-07-25T09:45:08;101567.69;;;40.36;22.03
61528;BME280;47395;42.032;-8.634;2022-07-25T09:47:13;101568.81;;;40.57;21.63
61528;BME280;47395;42.032;-8.634;2022-07-25T09:49:14;101578.41;;;40.99;21.22
61528;BME280;47395;42.032;-8.634;2022-07-25T09:51:15;101578.28;;;41.82;20.60
61528;BME280;47395;42.032;-8.634;2022-07-25T09:53:16;101570.50;;;41.41;20.84
61528;BME280;47395;42.032;-8.634;2022-07-25T09:55:19;101579.25;;;42.77;19.43
61528;BME280;47395;42.032;-8.634;2022-07-25T09:57:21;101583.13;;;42.66;19.41
61528;BME280;47395;42.032;-8.634;2022-07-25T09:59:23;101576.22;;;42.74;19.93
61528;BME280;47395;42.032;-8.634;2022-07-25T10:01:28;101574.03;;;42.12;20.41
61528;BME280;47395;42.032;-8.634;2022-07-25T10:06:27;101574.91;;;42.18;20.29
61528;BME280;47395;42.032;-8.634;2022-07-25T10:08:35;101581.34;;;42.34;20.27
61528;BME280;47395;42.032;-8.634;2022-07-25T10:10:38;101579.63;;;41.74;21.28
61528;BME280;47395;42.032;-8.634;2022-07-25T10:12:40;101571.09;;;42.39;20.69
61528;BME280;47395;42.032;-8.634;2022-07-25T10:14:41;101580.50;;;43.49;19.32
61528;BME280;47395;42.032;-8.634;2022-07-25T10:16:46;101569.91;;;43.30;18.76
61528;BME280;47395;42.032;-8.634;2022-07-25T10:18:49;101579.13;;;43.47;19.31
61528;BME280;47395;42.032;-8.634;2022-07-25T10:21:03;101580.38;;;42.66;19.58
61528;BME280;47395;42.032;-8.634;2022-07-25T10:23:21;101581.66;;;42.53;20.28
61528;BME280;47395;42.032;-8.634;2022-07-25T10:25:23;101571.91;;;42.30;20.42
61528;BME280;47395;42.032;-8.634;2022-07-25T10:27:24;101571.00;;;42.13;20.60
61528;BME280;47395;42.032;-8.634;2022-07-25T10:29:32;101572.53;;;42.47;20.80
61528;BME280;47395;42.032;-8.634;2022-07-25T10:31:36;101575.94;;;42.75;20.87
61528;BME280;47395;42.032;-8.634;2022-07-25T10:33:40;101573.56;;;43.47;19.91